Snow/Ice From: 17-12-2017 10:00 Until: 18-12-2017 06:00 warning for: Snow/Ice Level: Yellow info button

Although rather usual in this region, locally or potentially dangerous phenomena are expected. (such as local winds, summer thunderstorms, rising streams or high waves) Be aware and pay attention to the latest weather updates, especially if you carry out activities exposed to weather or close to a stream or shoreline. 


Meteo18 Weather Cam more information Meteo18 Weather Cam


Thunder radar more information blitzortung!


warning for Snow/Ice more information rain snow radar


Visit our other weather sites:

Template documentation
and downloads

And another site



Weather Underground History page Text

Daily Summary for January 3, 2017 Units:  Both    English   Metric
« Previous Day
Next Day »
Daily Weekly Monthly Yearly Custom
  High: Low: Average:
Temperature: 32.9 °F /  0.5 °C 27.9 °F /  -2.3 °C 30.2 °F /  -1 °C
Dew Point: 31.6 °F /  -0.2 °C 27.1 °F /  -2.7 °C 28.8 °F /  -1.8 °C
Humidity: 97 % 92 % 94 %
Wind Speed: 11 mph /  17.7 km/h - 3 mph /  4.8 km/h
Wind Gust: 17 mph /  27.4 km/h - -
Wind:- - East
Pressure: 30.5 in /  1031.4 hPa 30.4 in /  1028.7 hPa -
Precipitation: 0 in /  0.0 mm    
Historical Graphs
 
 
Tabular Data for January 3, 2017
Time Temperature Dew Point Pressure Wind Wind Speed Wind Gust Humidity Rainfall Rate (Hourly)
00:02 32.9 °F /  0.5 °C 31.6 °F /  -0.2 °C 30.4 in /  1028.7 hPa NE 6 mph /  9.7 km/h 16 mph /  25.7 km/h 95 % 0.01 in /  0.3 mm
00:12 32.7 °F /  0.4 °C 31.5 °F /  -0.3 °C 30.4 in /  1028.7 hPa NNE 10 mph /  16.1 km/h 17 mph /  27.4 km/h 95 % 0.01 in /  0.3 mm
00:17 32.7 °F /  0.4 °C 31.5 °F /  -0.3 °C 30.4 in /  1028.7 hPa ENE 3 mph /  4.8 km/h 14 mph /  22.5 km/h 95 % 0.01 in /  0.3 mm
00:22 32.5 °F /  0.3 °C 31.3 °F /  -0.4 °C 30.4 in /  1028.7 hPa ENE 6 mph /  9.7 km/h 13 mph /  20.9 km/h 95 % 0.01 in /  0.3 mm
00:27 32.5 °F /  0.3 °C 31.3 °F /  -0.4 °C 30.4 in /  1028.7 hPa ENE 2 mph /  3.2 km/h 12 mph /  19.3 km/h 95 % 0.01 in /  0.3 mm
00:32 32.5 °F /  0.3 °C 31.3 °F /  -0.4 °C 30.4 in /  1028.7 hPa East 7 mph /  11.3 km/h 12 mph /  19.3 km/h 95 % 0.01 in /  0.3 mm
00:37 32.4 °F /  0.2 °C 31.1 °F /  -0.5 °C 30.4 in /  1028.7 hPa NE 8 mph /  12.9 km/h 12 mph /  19.3 km/h 95 % 0.01 in /  0.3 mm
00:42 32.4 °F /  0.2 °C 30.7 °F /  -0.7 °C 30.4 in /  1028.7 hPa NE 3 mph /  4.8 km/h 13 mph /  20.9 km/h 94 % 0 in /  0.0 mm
00:47 32.2 °F /  0.1 °C 30.6 °F /  -0.8 °C 30.4 in /  1028.7 hPa NNE 5 mph /  8.0 km/h 13 mph /  20.9 km/h 94 % 0 in /  0.0 mm
00:52 31.8 °F /  -0.1 °C 30 °F /  -1.1 °C 30.4 in /  1028.7 hPa NE 6 mph /  9.7 km/h 15 mph /  24.1 km/h 93 % 0 in /  0.0 mm
00:57 31.8 °F /  -0.1 °C 30 °F /  -1.1 °C 30.4 in /  1028.7 hPa NNE 6 mph /  9.7 km/h 15 mph /  24.1 km/h 93 % 0 in /  0.0 mm
01:02 31.6 °F /  -0.2 °C 29.7 °F /  -1.3 °C 30.4 in /  1028.7 hPa ENE 9 mph /  14.5 km/h 15 mph /  24.1 km/h 92 % 0 in /  0.0 mm
01:12 31.6 °F /  -0.2 °C 29.7 °F /  -1.3 °C 30.4 in /  1029.0 hPa NE 5 mph /  8.0 km/h 15 mph /  24.1 km/h 92 % 0 in /  0.0 mm
01:17 31.6 °F /  -0.2 °C 29.7 °F /  -1.3 °C 30.4 in /  1028.7 hPa NE 8 mph /  12.9 km/h 14 mph /  22.5 km/h 92 % 0 in /  0.0 mm
01:22 31.6 °F /  -0.2 °C 29.8 °F /  -1.2 °C 30.4 in /  1028.7 hPa NNE 2 mph /  3.2 km/h 13 mph /  20.9 km/h 93 % 0 in /  0.0 mm
01:27 31.6 °F /  -0.2 °C 29.8 °F /  -1.2 °C 30.4 in /  1028.7 hPa NNE 8 mph /  12.9 km/h 10 mph /  16.1 km/h 93 % 0 in /  0.0 mm
01:32 31.6 °F /  -0.2 °C 29.8 °F /  -1.2 °C 30.4 in /  1028.7 hPa ENE 2 mph /  3.2 km/h 9 mph /  14.5 km/h 93 % 0 in /  0.0 mm
01:37 31.5 °F /  -0.3 °C 29.7 °F /  -1.3 °C 30.4 in /  1029.0 hPa NE 4 mph /  6.4 km/h 9 mph /  14.5 km/h 93 % 0 in /  0.0 mm
01:42 31.5 °F /  -0.3 °C 29.7 °F /  -1.3 °C 30.4 in /  1028.7 hPa NNE 4 mph /  6.4 km/h 10 mph /  16.1 km/h 93 % 0 in /  0.0 mm
01:47 31.5 °F /  -0.3 °C 29.7 °F /  -1.3 °C 30.4 in /  1029.0 hPa NE 5 mph /  8.0 km/h 10 mph /  16.1 km/h 93 % 0 in /  0.0 mm
01:52 31.5 °F /  -0.3 °C 29.7 °F /  -1.3 °C 30.4 in /  1029.0 hPa NE 5 mph /  8.0 km/h 11 mph /  17.7 km/h 93 % 0 in /  0.0 mm
01:57 31.5 °F /  -0.3 °C 29.7 °F /  -1.3 °C 30.4 in /  1029.0 hPa NE 3 mph /  4.8 km/h 12 mph /  19.3 km/h 93 % 0 in /  0.0 mm
02:02 31.5 °F /  -0.3 °C 29.7 °F /  -1.3 °C 30.4 in /  1028.7 hPa NE 3 mph /  4.8 km/h 12 mph /  19.3 km/h 93 % 0 in /  0.0 mm
02:12 31.5 °F /  -0.3 °C 29.7 °F /  -1.3 °C 30.4 in /  1028.7 hPa NE 6 mph /  9.7 km/h 10 mph /  16.1 km/h 93 % 0 in /  0.0 mm
02:17 31.3 °F /  -0.4 °C 29.5 °F /  -1.4 °C 30.4 in /  1028.7 hPa NE 2 mph /  3.2 km/h 10 mph /  16.1 km/h 93 % 0 in /  0.0 mm
02:22 31.3 °F /  -0.4 °C 29.5 °F /  -1.4 °C 30.4 in /  1028.7 hPa NE 8 mph /  12.9 km/h 10 mph /  16.1 km/h 93 % 0 in /  0.0 mm
02:32 30.9 °F /  -0.6 °C 28.9 °F /  -1.7 °C 30.4 in /  1028.7 hPa NNE 9 mph /  14.5 km/h 11 mph /  17.7 km/h 92 % 0 in /  0.0 mm
02:37 30.7 °F /  -0.7 °C 28.8 °F /  -1.8 °C 30.4 in /  1029.0 hPa NE 1 mph /  1.6 km/h 13 mph /  20.9 km/h 92 % 0 in /  0.0 mm
02:42 30.7 °F /  -0.7 °C 28.8 °F /  -1.8 °C 30.4 in /  1029.0 hPa NE 6 mph /  9.7 km/h 13 mph /  20.9 km/h 92 % 0 in /  0.0 mm
02:47 30.7 °F /  -0.7 °C 28.8 °F /  -1.8 °C 30.4 in /  1029.0 hPa NE 5 mph /  8.0 km/h 11 mph /  17.7 km/h 92 % 0 in /  0.0 mm
02:52 30.7 °F /  -0.7 °C 28.8 °F /  -1.8 °C 30.4 in /  1029.0 hPa NE 8 mph /  12.9 km/h 16 mph /  25.7 km/h 92 % 0 in /  0.0 mm
02:57 30.7 °F /  -0.7 °C 28.8 °F /  -1.8 °C 30.4 in /  1029.0 hPa NNE 8 mph /  12.9 km/h 16 mph /  25.7 km/h 92 % 0 in /  0.0 mm
03:02 30.7 °F /  -0.7 °C 28.8 °F /  -1.8 °C 30.4 in /  1029.0 hPa NNE 11 mph /  17.7 km/h 13 mph /  20.9 km/h 92 % 0 in /  0.0 mm
03:07 30.7 °F /  -0.7 °C 28.8 °F /  -1.8 °C 30.4 in /  1029.3 hPa NNE 8 mph /  12.9 km/h 12 mph /  19.3 km/h 92 % 0 in /  0.0 mm
03:12 30.7 °F /  -0.7 °C 28.8 °F /  -1.8 °C 30.4 in /  1029.0 hPa NNE 6 mph /  9.7 km/h 13 mph /  20.9 km/h 92 % 0 in /  0.0 mm
03:17 30.6 °F /  -0.8 °C 28.6 °F /  -1.9 °C 30.4 in /  1029.0 hPa NE 7 mph /  11.3 km/h 13 mph /  20.9 km/h 92 % 0 in /  0.0 mm
03:22 30.6 °F /  -0.8 °C 28.6 °F /  -1.9 °C 30.4 in /  1029.0 hPa NE 6 mph /  9.7 km/h 13 mph /  20.9 km/h 92 % 0 in /  0.0 mm
03:27 30.6 °F /  -0.8 °C 28.6 °F /  -1.9 °C 30.4 in /  1029.0 hPa ENE 1 mph /  1.6 km/h 13 mph /  20.9 km/h 92 % 0 in /  0.0 mm
03:32 30.6 °F /  -0.8 °C 28.6 °F /  -1.9 °C 30.4 in /  1029.0 hPa NNE 6 mph /  9.7 km/h 12 mph /  19.3 km/h 92 % 0 in /  0.0 mm
03:37 30.6 °F /  -0.8 °C 28.6 °F /  -1.9 °C 30.4 in /  1029.0 hPa NNE 4 mph /  6.4 km/h 12 mph /  19.3 km/h 92 % 0 in /  0.0 mm
03:42 30.6 °F /  -0.8 °C 28.8 °F /  -1.8 °C 30.4 in /  1029.3 hPa NNE 5 mph /  8.0 km/h 12 mph /  19.3 km/h 93 % 0 in /  0.0 mm
03:47 30.6 °F /  -0.8 °C 28.8 °F /  -1.8 °C 30.4 in /  1029.3 hPa ENE 6 mph /  9.7 km/h 10 mph /  16.1 km/h 93 % 0 in /  0.0 mm
03:52 30.4 °F /  -0.9 °C 28.6 °F /  -1.9 °C 30.4 in /  1029.3 hPa NE 7 mph /  11.3 km/h 12 mph /  19.3 km/h 93 % 0 in /  0.0 mm
03:57 30.6 °F /  -0.8 °C 28.8 °F /  -1.8 °C 30.4 in /  1029.3 hPa NNE 5 mph /  8.0 km/h 12 mph /  19.3 km/h 93 % 0 in /  0.0 mm
04:02 30.4 °F /  -0.9 °C 28.6 °F /  -1.9 °C 30.4 in /  1029.3 hPa NE 6 mph /  9.7 km/h 12 mph /  19.3 km/h 93 % 0 in /  0.0 mm
04:12 30.6 °F /  -0.8 °C 28.8 °F /  -1.8 °C 30.4 in /  1029.3 hPa NE 4 mph /  6.4 km/h 14 mph /  22.5 km/h 93 % 0 in /  0.0 mm
04:17 30.4 °F /  -0.9 °C 28.4 °F /  -2.0 °C 30.4 in /  1029.3 hPa NE 9 mph /  14.5 km/h 14 mph /  22.5 km/h 92 % 0 in /  0.0 mm
04:22 30.4 °F /  -0.9 °C 28.6 °F /  -1.9 °C 30.4 in /  1029.3 hPa North 4 mph /  6.4 km/h 15 mph /  24.1 km/h 93 % 0 in /  0.0 mm
04:27 30.4 °F /  -0.9 °C 28.6 °F /  -1.9 °C 30.4 in /  1029.3 hPa NNE 4 mph /  6.4 km/h 15 mph /  24.1 km/h 93 % 0 in /  0.0 mm
04:32 30.4 °F /  -0.9 °C 28.6 °F /  -1.9 °C 30.4 in /  1029.3 hPa NW 5 mph /  8.0 km/h 11 mph /  17.7 km/h 93 % 0 in /  0.0 mm
04:37 30.4 °F /  -0.9 °C 28.4 °F /  -2.0 °C 30.4 in /  1029.3 hPa NNE 5 mph /  8.0 km/h 11 mph /  17.7 km/h 92 % 0 in /  0.0 mm
04:42 30.2 °F /  -1.0 °C 28.2 °F /  -2.1 °C 30.4 in /  1029.3 hPa NNE 6 mph /  9.7 km/h 12 mph /  19.3 km/h 92 % 0 in /  0.0 mm
04:47 30 °F /  -1.1 °C 28.2 °F /  -2.1 °C 30.4 in /  1029.3 hPa NNE 3 mph /  4.8 km/h 12 mph /  19.3 km/h 93 % 0 in /  0.0 mm
04:52 30 °F /  -1.1 °C 28 °F /  -2.2 °C 30.4 in /  1029.3 hPa NE 2 mph /  3.2 km/h 12 mph /  19.3 km/h 92 % 0 in /  0.0 mm
04:57 30 °F /  -1.1 °C 28.2 °F /  -2.1 °C 30.4 in /  1029.3 hPa NNE 4 mph /  6.4 km/h 11 mph /  17.7 km/h 93 % 0 in /  0.0 mm
05:02 30 °F /  -1.1 °C 28.2 °F /  -2.1 °C 30.4 in /  1029.3 hPa North 4 mph /  6.4 km/h 11 mph /  17.7 km/h 93 % 0 in /  0.0 mm
05:07 30 °F /  -1.1 °C 28.2 °F /  -2.1 °C 30.4 in /  1029.3 hPa NNE 5 mph /  8.0 km/h 11 mph /  17.7 km/h 93 % 0 in /  0.0 mm
05:12 30 °F /  -1.1 °C 28.2 °F /  -2.1 °C 30.4 in /  1029.3 hPa NE 6 mph /  9.7 km/h 10 mph /  16.1 km/h 93 % 0 in /  0.0 mm
05:17 30 °F /  -1.1 °C 28.2 °F /  -2.1 °C 30.4 in /  1029.3 hPa NE 6 mph /  9.7 km/h 10 mph /  16.1 km/h 93 % 0 in /  0.0 mm
05:22 30.2 °F /  -1.0 °C 28.4 °F /  -2.0 °C 30.4 in /  1029.3 hPa NE 4 mph /  6.4 km/h 10 mph /  16.1 km/h 93 % 0 in /  0.0 mm
05:27 30.2 °F /  -1.0 °C 28.4 °F /  -2.0 °C 30.4 in /  1029.3 hPa ENE 2 mph /  3.2 km/h 8 mph /  12.9 km/h 93 % 0 in /  0.0 mm
05:32 30.2 °F /  -1.0 °C 28.4 °F /  -2.0 °C 30.4 in /  1029.3 hPa North 2 mph /  3.2 km/h 9 mph /  14.5 km/h 93 % 0 in /  0.0 mm
05:42 30 °F /  -1.1 °C 28.2 °F /  -2.1 °C 30.4 in /  1029.3 hPa NNE 2 mph /  3.2 km/h 11 mph /  17.7 km/h 93 % 0 in /  0.0 mm
05:47 30 °F /  -1.1 °C 28.2 °F /  -2.1 °C 30.4 in /  1029.3 hPa NE 6 mph /  9.7 km/h 11 mph /  17.7 km/h 93 % 0 in /  0.0 mm
05:52 30 °F /  -1.1 °C 28.2 °F /  -2.1 °C 30.4 in /  1029.3 hPa NNW 2 mph /  3.2 km/h 12 mph /  19.3 km/h 93 % 0 in /  0.0 mm
05:57 30 °F /  -1.1 °C 28.2 °F /  -2.1 °C 30.4 in /  1029.3 hPa NNE 4 mph /  6.4 km/h 12 mph /  19.3 km/h 93 % 0 in /  0.0 mm
06:02 30 °F /  -1.1 °C 28.2 °F /  -2.1 °C 30.4 in /  1029.3 hPa North 2 mph /  3.2 km/h 12 mph /  19.3 km/h 93 % 0 in /  0.0 mm
06:12 29.8 °F /  -1.2 °C 28 °F /  -2.2 °C 30.4 in /  1029.3 hPa North 6 mph /  9.7 km/h 12 mph /  19.3 km/h 93 % 0 in /  0.0 mm
06:17 30 °F /  -1.1 °C 28.2 °F /  -2.1 °C 30.4 in /  1029.3 hPa East 3 mph /  4.8 km/h 12 mph /  19.3 km/h 93 % 0 in /  0.0 mm
06:22 30 °F /  -1.1 °C 28.2 °F /  -2.1 °C 30.4 in /  1029.3 hPa NE 5 mph /  8.0 km/h 12 mph /  19.3 km/h 93 % 0 in /  0.0 mm
06:27 30 °F /  -1.1 °C 28.2 °F /  -2.1 °C 30.4 in /  1029.7 hPa NE 4 mph /  6.4 km/h 9 mph /  14.5 km/h 93 % 0 in /  0.0 mm
06:32 29.8 °F /  -1.2 °C 28 °F /  -2.2 °C 30.4 in /  1029.7 hPa NE 9 mph /  14.5 km/h 11 mph /  17.7 km/h 93 % 0 in /  0.0 mm
06:37 29.8 °F /  -1.2 °C 28 °F /  -2.2 °C 30.4 in /  1029.7 hPa NNE 10 mph /  16.1 km/h 13 mph /  20.9 km/h 93 % 0 in /  0.0 mm
06:42 29.8 °F /  -1.2 °C 28 °F /  -2.2 °C 30.4 in /  1029.7 hPa NNE 7 mph /  11.3 km/h 13 mph /  20.9 km/h 93 % 0 in /  0.0 mm
06:52 29.7 °F /  -1.3 °C 27.9 °F /  -2.3 °C 30.4 in /  1029.7 hPa NE 7 mph /  11.3 km/h 12 mph /  19.3 km/h 93 % 0 in /  0.0 mm
06:57 29.7 °F /  -1.3 °C 27.9 °F /  -2.3 °C 30.4 in /  1029.7 hPa NNE 5 mph /  8.0 km/h 12 mph /  19.3 km/h 93 % 0 in /  0.0 mm
07:02 29.7 °F /  -1.3 °C 27.9 °F /  -2.3 °C 30.4 in /  1029.7 hPa NNE 4 mph /  6.4 km/h 12 mph /  19.3 km/h 93 % 0 in /  0.0 mm
07:12 29.7 °F /  -1.3 °C 28.2 °F /  -2.1 °C 30.4 in /  1029.7 hPa NNE 5 mph /  8.0 km/h 12 mph /  19.3 km/h 94 % 0 in /  0.0 mm
07:17 29.8 °F /  -1.2 °C 28.4 °F /  -2.0 °C 30.4 in /  1029.7 hPa NE 7 mph /  11.3 km/h 11 mph /  17.7 km/h 94 % 0 in /  0.0 mm
07:22 29.7 °F /  -1.3 °C 28.2 °F /  -2.1 °C 30.4 in /  1029.7 hPa ENE 3 mph /  4.8 km/h 11 mph /  17.7 km/h 94 % 0 in /  0.0 mm
07:27 29.8 °F /  -1.2 °C 28.4 °F /  -2.0 °C 30.4 in /  1029.7 hPa NE 3 mph /  4.8 km/h 9 mph /  14.5 km/h 94 % 0 in /  0.0 mm
07:32 29.8 °F /  -1.2 °C 28.4 °F /  -2.0 °C 30.4 in /  1029.7 hPa NNE 5 mph /  8.0 km/h 9 mph /  14.5 km/h 94 % 0 in /  0.0 mm
07:37 29.7 °F /  -1.3 °C 28.2 °F /  -2.1 °C 30.4 in /  1030.0 hPa NNE 8 mph /  12.9 km/h 9 mph /  14.5 km/h 94 % 0 in /  0.0 mm
07:42 29.7 °F /  -1.3 °C 28.2 °F /  -2.1 °C 30.4 in /  1030.0 hPa NE 1 mph /  1.6 km/h 9 mph /  14.5 km/h 94 % 0 in /  0.0 mm
07:47 29.7 °F /  -1.3 °C 28.2 °F /  -2.1 °C 30.4 in /  1030.0 hPa NE 2 mph /  3.2 km/h 9 mph /  14.5 km/h 94 % 0 in /  0.0 mm
07:52 29.7 °F /  -1.3 °C 28.2 °F /  -2.1 °C 30.4 in /  1030.0 hPa East 4 mph /  6.4 km/h 9 mph /  14.5 km/h 94 % 0 in /  0.0 mm
07:57 29.7 °F /  -1.3 °C 28.2 °F /  -2.1 °C 30.4 in /  1030.0 hPa NNE 5 mph /  8.0 km/h 10 mph /  16.1 km/h 94 % 0 in /  0.0 mm
08:02 29.7 °F /  -1.3 °C 28.2 °F /  -2.1 °C 30.4 in /  1030.0 hPa NNE 5 mph /  8.0 km/h 10 mph /  16.1 km/h 94 % 0 in /  0.0 mm
08:12 29.7 °F /  -1.3 °C 28.4 °F /  -2.0 °C 30.4 in /  1030.0 hPa NE 3 mph /  4.8 km/h 9 mph /  14.5 km/h 95 % 0 in /  0.0 mm
08:17 29.7 °F /  -1.3 °C 28.4 °F /  -2.0 °C 30.4 in /  1030.0 hPa North 1 mph /  1.6 km/h 9 mph /  14.5 km/h 95 % 0 in /  0.0 mm
08:22 29.5 °F /  -1.4 °C 28.2 °F /  -2.1 °C 30.4 in /  1030.0 hPa NNE 3 mph /  4.8 km/h 11 mph /  17.7 km/h 95 % 0 in /  0.0 mm
08:27 29.5 °F /  -1.4 °C 28.2 °F /  -2.1 °C 30.4 in /  1030.0 hPa NNE 3 mph /  4.8 km/h 11 mph /  17.7 km/h 95 % 0 in /  0.0 mm
08:32 29.5 °F /  -1.4 °C 28.2 °F /  -2.1 °C 30.4 in /  1030.0 hPa NE 5 mph /  8.0 km/h 11 mph /  17.7 km/h 95 % 0 in /  0.0 mm
08:42 29.5 °F /  -1.4 °C 28.2 °F /  -2.1 °C 30.4 in /  1030.4 hPa NE 2 mph /  3.2 km/h 8 mph /  12.9 km/h 95 % 0 in /  0.0 mm
08:52 29.3 °F /  -1.5 °C 27.9 °F /  -2.3 °C 30.4 in /  1030.4 hPa NNW 3 mph /  4.8 km/h 13 mph /  20.9 km/h 94 % 0 in /  0.0 mm
08:57 29.1 °F /  -1.6 °C 27.9 °F /  -2.3 °C 30.4 in /  1030.4 hPa ENE 9 mph /  14.5 km/h 13 mph /  20.9 km/h 95 % 0 in /  0.0 mm
09:02 29.1 °F /  -1.6 °C 27.9 °F /  -2.3 °C 30.4 in /  1030.4 hPa NNE 3 mph /  4.8 km/h 13 mph /  20.9 km/h 95 % 0 in /  0.0 mm
09:07 29.1 °F /  -1.6 °C 27.9 °F /  -2.3 °C 30.4 in /  1030.4 hPa North 8 mph /  12.9 km/h 11 mph /  17.7 km/h 95 % 0 in /  0.0 mm
09:12 29.1 °F /  -1.6 °C 27.9 °F /  -2.3 °C 30.4 in /  1030.4 hPa NE 2 mph /  3.2 km/h 11 mph /  17.7 km/h 95 % 0 in /  0.0 mm
09:17 29.1 °F /  -1.6 °C 27.9 °F /  -2.3 °C 30.4 in /  1030.4 hPa NE 5 mph /  8.0 km/h 12 mph /  19.3 km/h 95 % 0 in /  0.0 mm
09:22 29.1 °F /  -1.6 °C 27.9 °F /  -2.3 °C 30.4 in /  1030.4 hPa NE 3 mph /  4.8 km/h 12 mph /  19.3 km/h 95 % 0 in /  0.0 mm
09:27 29.3 °F /  -1.5 °C 28 °F /  -2.2 °C 30.4 in /  1030.4 hPa NE 7 mph /  11.3 km/h 12 mph /  19.3 km/h 95 % 0 in /  0.0 mm
09:32 29.3 °F /  -1.5 °C 28 °F /  -2.2 °C 30.4 in /  1030.4 hPa ENE 2 mph /  3.2 km/h 10 mph /  16.1 km/h 95 % 0 in /  0.0 mm
09:37 29.5 °F /  -1.4 °C 28.2 °F /  -2.1 °C 30.4 in /  1030.4 hPa NNW 2 mph /  3.2 km/h 8 mph /  12.9 km/h 95 % 0 in /  0.0 mm
09:42 29.5 °F /  -1.4 °C 28.2 °F /  -2.1 °C 30.4 in /  1030.7 hPa NNE 2 mph /  3.2 km/h 8 mph /  12.9 km/h 95 % 0 in /  0.0 mm
09:47 29.5 °F /  -1.4 °C 28.2 °F /  -2.1 °C 30.4 in /  1030.7 hPa Calm   6 mph /  9.7 km/h 95 % 0 in /  0.0 mm
09:52 29.5 °F /  -1.4 °C 28.2 °F /  -2.1 °C 30.4 in /  1030.7 hPa NNE 3 mph /  4.8 km/h 6 mph /  9.7 km/h 95 % 0 in /  0.0 mm
09:57 29.7 °F /  -1.3 °C 28.4 °F /  -2.0 °C 30.4 in /  1030.7 hPa NE 3 mph /  4.8 km/h 6 mph /  9.7 km/h 95 % 0 in /  0.0 mm
10:02 29.7 °F /  -1.3 °C 28.4 °F /  -2.0 °C 30.4 in /  1030.7 hPa ESE 1 mph /  1.6 km/h 6 mph /  9.7 km/h 95 % 0 in /  0.0 mm
10:07 29.7 °F /  -1.3 °C 28.4 °F /  -2.0 °C 30.4 in /  1031.0 hPa NE 5 mph /  8.0 km/h 8 mph /  12.9 km/h 95 % 0 in /  0.0 mm
10:12 29.7 °F /  -1.3 °C 28.4 °F /  -2.0 °C 30.4 in /  1031.0 hPa Calm   8 mph /  12.9 km/h 95 % 0 in /  0.0 mm
10:17 29.7 °F /  -1.3 °C 28.4 °F /  -2.0 °C 30.4 in /  1031.0 hPa NE 3 mph /  4.8 km/h 8 mph /  12.9 km/h 95 % 0 in /  0.0 mm
10:22 29.7 °F /  -1.3 °C 28.4 °F /  -2.0 °C 30.4 in /  1031.0 hPa NNE 3 mph /  4.8 km/h 7 mph /  11.3 km/h 95 % 0 in /  0.0 mm
10:27 29.8 °F /  -1.2 °C 28.6 °F /  -1.9 °C 30.4 in /  1031.0 hPa NNE 3 mph /  4.8 km/h 6 mph /  9.7 km/h 95 % 0 in /  0.0 mm
10:32 29.8 °F /  -1.2 °C 28.6 °F /  -1.9 °C 30.4 in /  1031.0 hPa Calm   6 mph /  9.7 km/h 95 % 0 in /  0.0 mm
10:42 29.8 °F /  -1.2 °C 28.6 °F /  -1.9 °C 30.4 in /  1030.7 hPa NNE 2 mph /  3.2 km/h 6 mph /  9.7 km/h 95 % 0 in /  0.0 mm
10:47 29.8 °F /  -1.2 °C 28.6 °F /  -1.9 °C 30.4 in /  1030.7 hPa NNE 3 mph /  4.8 km/h 5 mph /  8.0 km/h 95 % 0 in /  0.0 mm
10:52 29.8 °F /  -1.2 °C 28.6 °F /  -1.9 °C 30.4 in /  1031.0 hPa North 2 mph /  3.2 km/h 6 mph /  9.7 km/h 95 % 0 in /  0.0 mm
10:57 29.7 °F /  -1.3 °C 28.4 °F /  -2.0 °C 30.4 in /  1031.0 hPa NE 4 mph /  6.4 km/h 8 mph /  12.9 km/h 95 % 0 in /  0.0 mm
11:02 29.8 °F /  -1.2 °C 28.6 °F /  -1.9 °C 30.4 in /  1031.0 hPa Calm   9 mph /  14.5 km/h 95 % 0 in /  0.0 mm
11:07 29.7 °F /  -1.3 °C 28.4 °F /  -2.0 °C 30.4 in /  1031.0 hPa NNE 4 mph /  6.4 km/h 9 mph /  14.5 km/h 95 % 0 in /  0.0 mm
11:12 29.7 °F /  -1.3 °C 28.4 °F /  -2.0 °C 30.4 in /  1031.0 hPa NE 2 mph /  3.2 km/h 9 mph /  14.5 km/h 95 % 0 in /  0.0 mm
11:22 29.7 °F /  -1.3 °C 28.4 °F /  -2.0 °C 30.4 in /  1031.0 hPa NW 1 mph /  1.6 km/h 8 mph /  12.9 km/h 95 % 0 in /  0.0 mm
11:32 29.8 °F /  -1.2 °C 28.6 °F /  -1.9 °C 30.5 in /  1031.4 hPa NNW 3 mph /  4.8 km/h 8 mph /  12.9 km/h 95 % 0 in /  0.0 mm
11:37 29.8 °F /  -1.2 °C 28.6 °F /  -1.9 °C 30.5 in /  1031.4 hPa Calm   7 mph /  11.3 km/h 95 % 0 in /  0.0 mm
11:42 29.8 °F /  -1.2 °C 28.6 °F /  -1.9 °C 30.5 in /  1031.4 hPa NNE 4 mph /  6.4 km/h 6 mph /  9.7 km/h 95 % 0 in /  0.0 mm
11:47 29.8 °F /  -1.2 °C 28.6 °F /  -1.9 °C 30.4 in /  1031.0 hPa NNE 1 mph /  1.6 km/h 8 mph /  12.9 km/h 95 % 0 in /  0.0 mm
11:52 30 °F /  -1.1 °C 28.8 °F /  -1.8 °C 30.5 in /  1031.4 hPa NNE 3 mph /  4.8 km/h 8 mph /  12.9 km/h 95 % 0 in /  0.0 mm
11:57 30 °F /  -1.1 °C 28.8 °F /  -1.8 °C 30.5 in /  1031.4 hPa NNE 4 mph /  6.4 km/h 8 mph /  12.9 km/h 95 % 0 in /  0.0 mm
12:02 30 °F /  -1.1 °C 28.8 °F /  -1.8 °C 30.4 in /  1031.0 hPa WNW 1 mph /  1.6 km/h 7 mph /  11.3 km/h 95 % 0 in /  0.0 mm
12:07 30.2 °F /  -1.0 °C 28.9 °F /  -1.7 °C 30.4 in /  1031.0 hPa North 2 mph /  3.2 km/h 7 mph /  11.3 km/h 95 % 0 in /  0.0 mm
12:12 30.2 °F /  -1.0 °C 28.9 °F /  -1.7 °C 30.4 in /  1031.0 hPa NNW 3 mph /  4.8 km/h 6 mph /  9.7 km/h 95 % 0 in /  0.0 mm
12:17 30.2 °F /  -1.0 °C 28.8 °F /  -1.8 °C 30.4 in /  1031.0 hPa NE 5 mph /  8.0 km/h 6 mph /  9.7 km/h 94 % 0 in /  0.0 mm
12:22 30 °F /  -1.1 °C 28.6 °F /  -1.9 °C 30.4 in /  1031.0 hPa NE 2 mph /  3.2 km/h 6 mph /  9.7 km/h 94 % 0 in /  0.0 mm
12:32 30.2 °F /  -1.0 °C 28.8 °F /  -1.8 °C 30.4 in /  1031.0 hPa ENE 2 mph /  3.2 km/h 8 mph /  12.9 km/h 94 % 0 in /  0.0 mm
12:42 30.4 °F /  -0.9 °C 28.9 °F /  -1.7 °C 30.4 in /  1030.7 hPa NNE 1 mph /  1.6 km/h 7 mph /  11.3 km/h 94 % 0 in /  0.0 mm
12:47 30.6 °F /  -0.8 °C 29.1 °F /  -1.6 °C 30.4 in /  1030.7 hPa NNE 2 mph /  3.2 km/h 5 mph /  8.0 km/h 94 % 0 in /  0.0 mm
12:52 30.6 °F /  -0.8 °C 28.8 °F /  -1.8 °C 30.4 in /  1031.0 hPa NE 2 mph /  3.2 km/h 5 mph /  8.0 km/h 93 % 0 in /  0.0 mm
12:57 30.6 °F /  -0.8 °C 28.8 °F /  -1.8 °C 30.4 in /  1031.0 hPa ENE 2 mph /  3.2 km/h 6 mph /  9.7 km/h 93 % 0 in /  0.0 mm
13:02 30.6 °F /  -0.8 °C 28.8 °F /  -1.8 °C 30.4 in /  1031.0 hPa NE 2 mph /  3.2 km/h 6 mph /  9.7 km/h 93 % 0 in /  0.0 mm
13:07 30.7 °F /  -0.7 °C 28.9 °F /  -1.7 °C 30.4 in /  1030.7 hPa NNE 2 mph /  3.2 km/h 5 mph /  8.0 km/h 93 % 0 in /  0.0 mm
13:17 30.9 °F /  -0.6 °C 29.1 °F /  -1.6 °C 30.4 in /  1031.0 hPa NNE 3 mph /  4.8 km/h 6 mph /  9.7 km/h 93 % 0 in /  0.0 mm
13:22 30.7 °F /  -0.7 °C 28.9 °F /  -1.7 °C 30.4 in /  1030.7 hPa North 3 mph /  4.8 km/h 7 mph /  11.3 km/h 93 % 0 in /  0.0 mm
13:27 30.9 °F /  -0.6 °C 29.1 °F /  -1.6 °C 30.4 in /  1030.7 hPa NNW 4 mph /  6.4 km/h 7 mph /  11.3 km/h 93 % 0 in /  0.0 mm
13:37 31.3 °F /  -0.4 °C 29.5 °F /  -1.4 °C 30.4 in /  1030.7 hPa NE 3 mph /  4.8 km/h 8 mph /  12.9 km/h 93 % 0 in /  0.0 mm
13:42 31.3 °F /  -0.4 °C 29.5 °F /  -1.4 °C 30.4 in /  1030.7 hPa NE 4 mph /  6.4 km/h 7 mph /  11.3 km/h 93 % 0 in /  0.0 mm
13:47 31.3 °F /  -0.4 °C 29.5 °F /  -1.4 °C 30.4 in /  1030.4 hPa NW 3 mph /  4.8 km/h 7 mph /  11.3 km/h 93 % 0 in /  0.0 mm
13:52 31.3 °F /  -0.4 °C 29.5 °F /  -1.4 °C 30.4 in /  1030.4 hPa NNE 2 mph /  3.2 km/h 7 mph /  11.3 km/h 93 % 0 in /  0.0 mm
13:57 31.5 °F /  -0.3 °C 29.7 °F /  -1.3 °C 30.4 in /  1030.4 hPa North 7 mph /  11.3 km/h 7 mph /  11.3 km/h 93 % 0 in /  0.0 mm
14:02 31.5 °F /  -0.3 °C 29.5 °F /  -1.4 °C 30.4 in /  1030.7 hPa NE 1 mph /  1.6 km/h 8 mph /  12.9 km/h 92 % 0 in /  0.0 mm
14:07 31.5 °F /  -0.3 °C 29.7 °F /  -1.3 °C 30.4 in /  1030.4 hPa NNE 4 mph /  6.4 km/h 8 mph /  12.9 km/h 93 % 0 in /  0.0 mm
14:12 31.6 °F /  -0.2 °C 29.8 °F /  -1.2 °C 30.4 in /  1030.4 hPa NNE 2 mph /  3.2 km/h 8 mph /  12.9 km/h 93 % 0 in /  0.0 mm
14:17 31.8 °F /  -0.1 °C 30 °F /  -1.1 °C 30.4 in /  1030.4 hPa NNW 3 mph /  4.8 km/h 6 mph /  9.7 km/h 93 % 0 in /  0.0 mm
14:22 31.6 °F /  -0.2 °C 29.7 °F /  -1.3 °C 30.4 in /  1030.4 hPa North 3 mph /  4.8 km/h 6 mph /  9.7 km/h 92 % 0 in /  0.0 mm
14:27 31.6 °F /  -0.2 °C 29.7 °F /  -1.3 °C 30.4 in /  1030.4 hPa NW 3 mph /  4.8 km/h 6 mph /  9.7 km/h 92 % 0 in /  0.0 mm
14:32 31.5 °F /  -0.3 °C 29.7 °F /  -1.3 °C 30.4 in /  1030.4 hPa NNE 5 mph /  8.0 km/h 7 mph /  11.3 km/h 93 % 0 in /  0.0 mm
14:37 31.6 °F /  -0.2 °C 29.8 °F /  -1.2 °C 30.4 in /  1030.4 hPa NNE 3 mph /  4.8 km/h 7 mph /  11.3 km/h 93 % 0 in /  0.0 mm
14:42 31.6 °F /  -0.2 °C 29.8 °F /  -1.2 °C 30.4 in /  1030.4 hPa NNW 2 mph /  3.2 km/h 7 mph /  11.3 km/h 93 % 0 in /  0.0 mm
14:47 31.6 °F /  -0.2 °C 29.8 °F /  -1.2 °C 30.4 in /  1030.4 hPa North 1 mph /  1.6 km/h 7 mph /  11.3 km/h 93 % 0 in /  0.0 mm
14:52 31.8 °F /  -0.1 °C 30 °F /  -1.1 °C 30.4 in /  1030.4 hPa Calm   7 mph /  11.3 km/h 93 % 0 in /  0.0 mm
14:57 31.8 °F /  -0.1 °C 29.8 °F /  -1.2 °C 30.4 in /  1030.4 hPa NW 2 mph /  3.2 km/h 7 mph /  11.3 km/h 92 % 0 in /  0.0 mm
15:02 31.6 °F /  -0.2 °C 29.7 °F /  -1.3 °C 30.4 in /  1030.4 hPa NE 2 mph /  3.2 km/h 5 mph /  8.0 km/h 92 % 0 in /  0.0 mm
15:12 31.6 °F /  -0.2 °C 29.7 °F /  -1.3 °C 30.4 in /  1030.4 hPa NE 4 mph /  6.4 km/h 5 mph /  8.0 km/h 92 % 0 in /  0.0 mm
15:17 31.5 °F /  -0.3 °C 29.5 °F /  -1.4 °C 30.4 in /  1030.4 hPa NNE 1 mph /  1.6 km/h 6 mph /  9.7 km/h 92 % 0 in /  0.0 mm
15:22 31.5 °F /  -0.3 °C 29.5 °F /  -1.4 °C 30.4 in /  1030.4 hPa Calm   6 mph /  9.7 km/h 92 % 0 in /  0.0 mm
15:27 31.5 °F /  -0.3 °C 29.5 °F /  -1.4 °C 30.4 in /  1030.4 hPa ENE 3 mph /  4.8 km/h 6 mph /  9.7 km/h 92 % 0 in /  0.0 mm
15:32 31.5 °F /  -0.3 °C 29.5 °F /  -1.4 °C 30.4 in /  1030.4 hPa ENE 2 mph /  3.2 km/h 4 mph /  6.4 km/h 92 % 0 in /  0.0 mm
15:37 31.3 °F /  -0.4 °C 29.3 °F /  -1.5 °C 30.4 in /  1030.4 hPa Calm   4 mph /  6.4 km/h 92 % 0 in /  0.0 mm
15:42 31.5 °F /  -0.3 °C 29.7 °F /  -1.3 °C 30.4 in /  1030.7 hPa ENE 1 mph /  1.6 km/h 4 mph /  6.4 km/h 93 % 0 in /  0.0 mm
15:47 31.5 °F /  -0.3 °C 29.5 °F /  -1.4 °C 30.4 in /  1030.7 hPa NNE 1 mph /  1.6 km/h 4 mph /  6.4 km/h 92 % 0 in /  0.0 mm
15:52 31.5 °F /  -0.3 °C 29.5 °F /  -1.4 °C 30.4 in /  1030.7 hPa NNE 1 mph /  1.6 km/h 3 mph /  4.8 km/h 92 % 0 in /  0.0 mm
15:57 31.5 °F /  -0.3 °C 29.7 °F /  -1.3 °C 30.4 in /  1030.7 hPa North 2 mph /  3.2 km/h 3 mph /  4.8 km/h 93 % 0 in /  0.0 mm
16:02 31.5 °F /  -0.3 °C 29.7 °F /  -1.3 °C 30.4 in /  1030.7 hPa NNW 3 mph /  4.8 km/h 5 mph /  8.0 km/h 93 % 0 in /  0.0 mm
16:07 31.5 °F /  -0.3 °C 29.7 °F /  -1.3 °C 30.4 in /  1030.7 hPa NNE 2 mph /  3.2 km/h 5 mph /  8.0 km/h 93 % 0 in /  0.0 mm
16:12 31.5 °F /  -0.3 °C 29.7 °F /  -1.3 °C 30.4 in /  1030.7 hPa NNE 2 mph /  3.2 km/h 5 mph /  8.0 km/h 93 % 0 in /  0.0 mm
16:17 31.3 °F /  -0.4 °C 29.5 °F /  -1.4 °C 30.4 in /  1030.4 hPa NNW 1 mph /  1.6 km/h 4 mph /  6.4 km/h 93 % 0 in /  0.0 mm
16:22 31.3 °F /  -0.4 °C 29.5 °F /  -1.4 °C 30.4 in /  1030.4 hPa NNE 1 mph /  1.6 km/h 4 mph /  6.4 km/h 93 % 0 in /  0.0 mm
16:27 31.3 °F /  -0.4 °C 29.5 °F /  -1.4 °C 30.4 in /  1030.4 hPa Calm   4 mph /  6.4 km/h 93 % 0 in /  0.0 mm
16:32 31.3 °F /  -0.4 °C 29.5 °F /  -1.4 °C 30.4 in /  1030.4 hPa WNW 1 mph /  1.6 km/h 3 mph /  4.8 km/h 93 % 0 in /  0.0 mm
16:37 31.1 °F /  -0.5 °C 29.3 °F /  -1.5 °C 30.4 in /  1030.4 hPa NW 1 mph /  1.6 km/h 3 mph /  4.8 km/h 93 % 0 in /  0.0 mm
16:42 31.1 °F /  -0.5 °C 29.3 °F /  -1.5 °C 30.4 in /  1030.4 hPa NNE 1 mph /  1.6 km/h 2 mph /  3.2 km/h 93 % 0 in /  0.0 mm
16:47 31.1 °F /  -0.5 °C 29.3 °F /  -1.5 °C 30.4 in /  1030.4 hPa NE 4 mph /  6.4 km/h 5 mph /  8.0 km/h 93 % 0 in /  0.0 mm
16:52 30.9 °F /  -0.6 °C 29.1 °F /  -1.6 °C 30.4 in /  1030.4 hPa Calm   5 mph /  8.0 km/h 93 % 0 in /  0.0 mm
16:57 30.7 °F /  -0.7 °C 28.9 °F /  -1.7 °C 30.4 in /  1030.4 hPa Calm   5 mph /  8.0 km/h 93 % 0 in /  0.0 mm
17:07 30.7 °F /  -0.7 °C 28.9 °F /  -1.7 °C 30.4 in /  1030.4 hPa Calm   3 mph /  4.8 km/h 93 % 0 in /  0.0 mm
17:12 30.7 °F /  -0.7 °C 28.9 °F /  -1.7 °C 30.4 in /  1030.4 hPa NE 1 mph /  1.6 km/h 3 mph /  4.8 km/h 93 % 0 in /  0.0 mm
17:17 30.6 °F /  -0.8 °C 28.8 °F /  -1.8 °C 30.4 in /  1030.4 hPa NW 1 mph /  1.6 km/h 3 mph /  4.8 km/h 93 % 0 in /  0.0 mm
17:27 30.6 °F /  -0.8 °C 29.1 °F /  -1.6 °C 30.4 in /  1030.0 hPa Calm   2 mph /  3.2 km/h 94 % 0 in /  0.0 mm
17:37 30.6 °F /  -0.8 °C 29.1 °F /  -1.6 °C 30.4 in /  1030.0 hPa North 2 mph /  3.2 km/h 4 mph /  6.4 km/h 94 % 0 in /  0.0 mm
17:47 30.4 °F /  -0.9 °C 28.9 °F /  -1.7 °C 30.4 in /  1030.4 hPa Calm   4 mph /  6.4 km/h 94 % 0 in /  0.0 mm
17:52 30.6 °F /  -0.8 °C 29.1 °F /  -1.6 °C 30.4 in /  1030.4 hPa NNE 1 mph /  1.6 km/h 4 mph /  6.4 km/h 94 % 0 in /  0.0 mm
18:02 30.6 °F /  -0.8 °C 29.3 °F /  -1.5 °C 30.4 in /  1030.4 hPa NNW 3 mph /  4.8 km/h 4 mph /  6.4 km/h 95 % 0 in /  0.0 mm
18:07 30.6 °F /  -0.8 °C 29.3 °F /  -1.5 °C 30.4 in /  1030.4 hPa Calm   5 mph /  8.0 km/h 95 % 0 in /  0.0 mm
18:12 30.4 °F /  -0.9 °C 28.9 °F /  -1.7 °C 30.4 in /  1030.4 hPa North 2 mph /  3.2 km/h 5 mph /  8.0 km/h 94 % 0 in /  0.0 mm
18:22 30 °F /  -1.1 °C 28.6 °F /  -1.9 °C 30.4 in /  1030.4 hPa NW 1 mph /  1.6 km/h 6 mph /  9.7 km/h 94 % 0 in /  0.0 mm
18:32 29.8 °F /  -1.2 °C 28.6 °F /  -1.9 °C 30.4 in /  1030.4 hPa Calm   2 mph /  3.2 km/h 95 % 0 in /  0.0 mm
18:37 29.8 °F /  -1.2 °C 28.6 °F /  -1.9 °C 30.4 in /  1030.4 hPa Calm   2 mph /  3.2 km/h 95 % 0 in /  0.0 mm
18:47 29.8 °F /  -1.2 °C 28.6 °F /  -1.9 °C 30.4 in /  1030.4 hPa Calm   1 mph /  1.6 km/h 95 % 0 in /  0.0 mm
18:52 29.8 °F /  -1.2 °C 28.6 °F /  -1.9 °C 30.4 in /  1030.4 hPa Calm   1 mph /  1.6 km/h 95 % 0 in /  0.0 mm
18:57 30 °F /  -1.1 °C 28.8 °F /  -1.8 °C 30.4 in /  1030.7 hPa Calm   1 mph /  1.6 km/h 95 % 0 in /  0.0 mm
19:02 29.8 °F /  -1.2 °C 28.6 °F /  -1.9 °C 30.4 in /  1030.7 hPa NNW 1 mph /  1.6 km/h 3 mph /  4.8 km/h 95 % 0 in /  0.0 mm
19:07 29.8 °F /  -1.2 °C 28.6 °F /  -1.9 °C 30.4 in /  1030.7 hPa NNW 1 mph /  1.6 km/h 3 mph /  4.8 km/h 95 % 0 in /  0.0 mm
19:12 29.8 °F /  -1.2 °C 28.6 °F /  -1.9 °C 30.4 in /  1031.0 hPa ENE 3 mph /  4.8 km/h 6 mph /  9.7 km/h 95 % 0 in /  0.0 mm
19:17 29.7 °F /  -1.3 °C 28.4 °F /  -2.0 °C 30.4 in /  1030.7 hPa North 3 mph /  4.8 km/h 6 mph /  9.7 km/h 95 % 0 in /  0.0 mm
19:22 29.5 °F /  -1.4 °C 28.2 °F /  -2.1 °C 30.4 in /  1030.7 hPa NE 3 mph /  4.8 km/h 6 mph /  9.7 km/h 95 % 0 in /  0.0 mm
19:27 29.5 °F /  -1.4 °C 28.2 °F /  -2.1 °C 30.4 in /  1031.0 hPa NE 1 mph /  1.6 km/h 5 mph /  8.0 km/h 95 % 0 in /  0.0 mm
19:32 29.3 °F /  -1.5 °C 28.2 °F /  -2.1 °C 30.4 in /  1031.0 hPa Calm   4 mph /  6.4 km/h 96 % 0 in /  0.0 mm
19:42 29.5 °F /  -1.4 °C 28.4 °F /  -2.0 °C 30.4 in /  1031.0 hPa Calm   3 mph /  4.8 km/h 96 % 0 in /  0.0 mm
19:47 29.5 °F /  -1.4 °C 28.4 °F /  -2.0 °C 30.4 in /  1031.0 hPa ESE 1 mph /  1.6 km/h 3 mph /  4.8 km/h 96 % 0 in /  0.0 mm
19:52 29.3 °F /  -1.5 °C 28.2 °F /  -2.1 °C 30.4 in /  1030.7 hPa Calm   3 mph /  4.8 km/h 96 % 0 in /  0.0 mm
19:57 29.3 °F /  -1.5 °C 28.2 °F /  -2.1 °C 30.4 in /  1031.0 hPa Calm   3 mph /  4.8 km/h 96 % 0 in /  0.0 mm
20:02 29.5 °F /  -1.4 °C 28.4 °F /  -2.0 °C 30.4 in /  1031.0 hPa Calm   1 mph /  1.6 km/h 96 % 0 in /  0.0 mm
20:07 29.3 °F /  -1.5 °C 28.2 °F /  -2.1 °C 30.4 in /  1031.0 hPa Calm   2 mph /  3.2 km/h 96 % 0 in /  0.0 mm
20:12 29.1 °F /  -1.6 °C 28 °F /  -2.2 °C 30.4 in /  1030.7 hPa Calm   2 mph /  3.2 km/h 96 % 0 in /  0.0 mm
20:17 29.1 °F /  -1.6 °C 28 °F /  -2.2 °C 30.4 in /  1030.7 hPa Calm   1 mph /  1.6 km/h 96 % 0 in /  0.0 mm
20:27 29.1 °F /  -1.6 °C 28 °F /  -2.2 °C 30.4 in /  1030.7 hPa Calm   1 mph /  1.6 km/h 96 % 0 in /  0.0 mm
20:32 29.1 °F /  -1.6 °C 28 °F /  -2.2 °C 30.4 in /  1031.0 hPa Calm   1 mph /  1.6 km/h 96 % 0 in /  0.0 mm
20:42 29.1 °F /  -1.6 °C 28 °F /  -2.2 °C 30.4 in /  1031.0 hPa Calm   1 mph /  1.6 km/h 96 % 0 in /  0.0 mm
20:47 29.1 °F /  -1.6 °C 28 °F /  -2.2 °C 30.4 in /  1031.0 hPa Calm     96 % 0 in /  0.0 mm
20:52 29.1 °F /  -1.6 °C 28 °F /  -2.2 °C 30.4 in /  1031.0 hPa Calm   1 mph /  1.6 km/h 96 % 0 in /  0.0 mm
21:02 28.9 °F /  -1.7 °C 27.9 °F /  -2.3 °C 30.4 in /  1031.0 hPa Calm   1 mph /  1.6 km/h 96 % 0 in /  0.0 mm
21:12 28.9 °F /  -1.7 °C 28.2 °F /  -2.1 °C 30.4 in /  1031.0 hPa Calm   1 mph /  1.6 km/h 97 % 0 in /  0.0 mm
21:17 28.9 °F /  -1.7 °C 28.2 °F /  -2.1 °C 30.4 in /  1031.0 hPa Calm   2 mph /  3.2 km/h 97 % 0 in /  0.0 mm
21:27 28.9 °F /  -1.7 °C 28.2 °F /  -2.1 °C 30.4 in /  1030.7 hPa Calm   2 mph /  3.2 km/h 97 % 0 in /  0.0 mm
21:32 28.8 °F /  -1.8 °C 28 °F /  -2.2 °C 30.4 in /  1030.7 hPa Calm   2 mph /  3.2 km/h 97 % 0 in /  0.0 mm
21:37 28.8 °F /  -1.8 °C 28 °F /  -2.2 °C 30.4 in /  1030.7 hPa Calm   2 mph /  3.2 km/h 97 % 0 in /  0.0 mm
21:42 28.8 °F /  -1.8 °C 28 °F /  -2.2 °C 30.4 in /  1030.7 hPa Calm     97 % 0 in /  0.0 mm
21:47 28.8 °F /  -1.8 °C 28 °F /  -2.2 °C 30.4 in /  1030.7 hPa Calm     97 % 0 in /  0.0 mm
21:52 28.8 °F /  -1.8 °C 28 °F /  -2.2 °C 30.4 in /  1030.7 hPa SSW 1 mph /  1.6 km/h 2 mph /  3.2 km/h 97 % 0 in /  0.0 mm
21:57 28.6 °F /  -1.9 °C 27.9 °F /  -2.3 °C 30.4 in /  1030.7 hPa Calm   3 mph /  4.8 km/h 97 % 0 in /  0.0 mm
22:02 28.6 °F /  -1.9 °C 27.9 °F /  -2.3 °C 30.4 in /  1030.7 hPa SSW 1 mph /  1.6 km/h 3 mph /  4.8 km/h 97 % 0 in /  0.0 mm
22:12 28.6 °F /  -1.9 °C 27.9 °F /  -2.3 °C 30.4 in /  1030.7 hPa Calm   2 mph /  3.2 km/h 97 % 0 in /  0.0 mm
22:17 28.6 °F /  -1.9 °C 27.9 °F /  -2.3 °C 30.4 in /  1030.7 hPa Calm   2 mph /  3.2 km/h 97 % 0 in /  0.0 mm
22:27 28.6 °F /  -1.9 °C 27.9 °F /  -2.3 °C 30.4 in /  1030.7 hPa Calm   3 mph /  4.8 km/h 97 % 0 in /  0.0 mm
22:32 28.6 °F /  -1.9 °C 27.9 °F /  -2.3 °C 30.4 in /  1030.7 hPa Calm   3 mph /  4.8 km/h 97 % 0 in /  0.0 mm
22:42 28.6 °F /  -1.9 °C 27.9 °F /  -2.3 °C 30.4 in /  1030.7 hPa South 2 mph /  3.2 km/h 3 mph /  4.8 km/h 97 % 0 in /  0.0 mm
22:47 28.6 °F /  -1.9 °C 27.9 °F /  -2.3 °C 30.4 in /  1030.4 hPa SSW 3 mph /  4.8 km/h 4 mph /  6.4 km/h 97 % 0 in /  0.0 mm
22:52 28.6 °F /  -1.9 °C 27.9 °F /  -2.3 °C 30.4 in /  1030.4 hPa SW 1 mph /  1.6 km/h 7 mph /  11.3 km/h 97 % 0 in /  0.0 mm
23:02 28.4 °F /  -2.0 °C 27.7 °F /  -2.4 °C 30.4 in /  1030.4 hPa SW 3 mph /  4.8 km/h 7 mph /  11.3 km/h 97 % 0 in /  0.0 mm
23:12 28.2 °F /  -2.1 °C 27.5 °F /  -2.5 °C 30.4 in /  1030.4 hPa SSW 3 mph /  4.8 km/h 6 mph /  9.7 km/h 97 % 0 in /  0.0 mm
23:17 28.2 °F /  -2.1 °C 27.5 °F /  -2.5 °C 30.4 in /  1030.4 hPa SW 2 mph /  3.2 km/h 5 mph /  8.0 km/h 97 % 0 in /  0.0 mm
23:22 28.2 °F /  -2.1 °C 27.5 °F /  -2.5 °C 30.4 in /  1030.4 hPa SW 1 mph /  1.6 km/h 5 mph /  8.0 km/h 97 % 0 in /  0.0 mm
23:27 28.2 °F /  -2.1 °C 27.5 °F /  -2.5 °C 30.4 in /  1030.4 hPa SW 4 mph /  6.4 km/h 6 mph /  9.7 km/h 97 % 0 in /  0.0 mm
23:37 28.2 °F /  -2.1 °C 27.5 °F /  -2.5 °C 30.4 in /  1030.4 hPa SSW 2 mph /  3.2 km/h 6 mph /  9.7 km/h 97 % 0 in /  0.0 mm
23:42 28.2 °F /  -2.1 °C 27.5 °F /  -2.5 °C 30.4 in /  1030.4 hPa SW 4 mph /  6.4 km/h 8 mph /  12.9 km/h 97 % 0 in /  0.0 mm
23:47 28 °F /  -2.2 °C 27.3 °F /  -2.6 °C 30.4 in /  1030.4 hPa SW 3 mph /  4.8 km/h 8 mph /  12.9 km/h 97 % 0 in /  0.0 mm
23:52 27.9 °F /  -2.3 °C 27.1 °F /  -2.7 °C 30.4 in /  1030.4 hPa WSW 3 mph /  4.8 km/h 8 mph /  12.9 km/h 97 % 0 in /  0.0 mm
23:57 27.9 °F /  -2.3 °C 27.1 °F /  -2.7 °C 30.4 in /  1030.4 hPa SW 1 mph /  1.6 km/h 8 mph /  12.9 km/h 97 % 0 in /  0.0 mm
Meteo18
Compliments of Weather Underground - 4 mb

Script developed by  Jim McMurry - jmcmurry@mwt.net Adapted for the template by  Wim van der Kuil - Leuven-Template.eu

You find our weather info also at:

European Weather Network

Weather Underground

Equipment we use:

Weather-station
Davis Vue

Weather-program
Meteohub

Weather-server
Raspberry PI 2 B+

Provider
1 and 1

Davis Vue

Meteohub

Raspberry PI 2 B+

1 and 1